sensor_id;sensor_type;location;lat;lon;timestamp;P1;durP1;ratioP1;P2;durP2;ratioP2
54557;SDS011;40452;50.080;20.040;2022-09-27T03:52:02;12.35;;;5.75;;
54557;SDS011;40452;50.080;20.040;2022-09-27T03:54:28;9.85;;;6.75;;
54557;SDS011;40452;50.080;20.040;2022-09-27T03:56:53;8.43;;;6.38;;
54557;SDS011;40452;50.080;20.040;2022-09-27T03:59:19;11.07;;;6.20;;
54557;SDS011;40452;50.080;20.040;2022-09-27T04:01:44;8.98;;;6.25;;
54557;SDS011;40452;50.080;20.040;2022-09-27T04:04:10;13.20;;;5.80;;
54557;SDS011;40452;50.080;20.040;2022-09-27T04:06:35;11.95;;;6.00;;
54557;SDS011;40452;50.080;20.040;2022-09-27T04:09:01;7.40;;;5.78;;
54557;SDS011;40452;50.080;20.040;2022-09-27T04:11:27;8.38;;;5.60;;
54557;SDS011;40452;50.080;20.040;2022-09-27T04:13:52;10.48;;;5.78;;
54557;SDS011;40452;50.080;20.040;2022-09-27T04:16:20;10.05;;;5.57;;
54557;SDS011;40452;50.080;20.040;2022-09-27T04:18:46;14.93;;;5.82;;
54557;SDS011;40452;50.080;20.040;2022-09-27T04:21:11;10.18;;;5.80;;
54557;SDS011;40452;50.080;20.040;2022-09-27T04:23:37;8.60;;;5.32;;
54557;SDS011;40452;50.080;20.040;2022-09-27T04:26:02;7.70;;;5.03;;
54557;SDS011;40452;50.080;20.040;2022-09-27T04:28:28;7.57;;;5.00;;
54557;SDS011;40452;50.080;20.040;2022-09-27T04:30:54;8.45;;;5.40;;
54557;SDS011;40452;50.080;20.040;2022-09-27T04:33:20;9.25;;;5.43;;
54557;SDS011;40452;50.080;20.040;2022-09-27T04:35:45;7.93;;;5.47;;
54557;SDS011;40452;50.080;20.040;2022-09-27T04:38:30;8.20;;;5.30;;
54557;SDS011;40452;50.080;20.040;2022-09-27T04:40:55;7.68;;;5.28;;
54557;SDS011;40452;50.080;20.040;2022-09-27T04:43:21;11.90;;;5.60;;
54557;SDS011;40452;50.080;20.040;2022-09-27T04:45:46;8.18;;;4.88;;
54557;SDS011;40452;50.080;20.040;2022-09-27T04:48:12;7.82;;;5.60;;
54557;SDS011;40452;50.080;20.040;2022-09-27T04:50:37;8.20;;;5.60;;
54557;SDS011;40452;50.080;20.040;2022-09-27T04:53:04;9.85;;;5.85;;
54557;SDS011;40452;50.080;20.040;2022-09-27T04:55:30;7.72;;;5.20;;
54557;SDS011;40452;50.080;20.040;2022-09-27T04:57:55;8.05;;;5.15;;
54557;SDS011;40452;50.080;20.040;2022-09-27T05:00:21;8.57;;;4.90;;
54557;SDS011;40452;50.080;20.040;2022-09-27T05:02:47;8.90;;;5.78;;
54557;SDS011;40452;50.080;20.040;2022-09-27T05:05:12;9.98;;;5.28;;
54557;SDS011;40452;50.080;20.040;2022-09-27T05:07:39;9.90;;;6.10;;
54557;SDS011;40452;50.080;20.040;2022-09-27T05:10:05;8.98;;;5.35;;
54557;SDS011;40452;50.080;20.040;2022-09-27T05:12:31;7.47;;;5.15;;
54557;SDS011;40452;50.080;20.040;2022-09-27T05:14:57;12.65;;;6.03;;
54557;SDS011;40452;50.080;20.040;2022-09-27T05:17:23;9.00;;;5.65;;
54557;SDS011;40452;50.080;20.040;2022-09-27T05:19:49;10.93;;;5.78;;
54557;SDS011;40452;50.080;20.040;2022-09-27T05:22:14;13.38;;;6.00;;
54557;SDS011;40452;50.080;20.040;2022-09-27T05:24:40;12.23;;;6.22;;
54557;SDS011;40452;50.080;20.040;2022-09-27T05:27:07;19.73;;;6.40;;
54557;SDS011;40452;50.080;20.040;2022-09-27T05:29:36;13.50;;;6.53;;
54557;SDS011;40452;50.080;20.040;2022-09-27T05:32:01;13.13;;;6.70;;
54557;SDS011;40452;50.080;20.040;2022-09-27T05:34:27;10.80;;;6.25;;
54557;SDS011;40452;50.080;20.040;2022-09-27T05:36:53;10.20;;;7.03;;
54557;SDS011;40452;50.080;20.040;2022-09-27T05:39:18;12.43;;;7.28;;
54557;SDS011;40452;50.080;20.040;2022-09-27T05:41:44;12.65;;;6.82;;
54557;SDS011;40452;50.080;20.040;2022-09-27T05:44:11;16.25;;;6.80;;
54557;SDS011;40452;50.080;20.040;2022-09-27T05:46:37;14.00;;;7.03;;
54557;SDS011;40452;50.080;20.040;2022-09-27T05:49:03;15.73;;;7.32;;
54557;SDS011;40452;50.080;20.040;2022-09-27T05:51:29;14.70;;;7.20;;
54557;SDS011;40452;50.080;20.040;2022-09-27T05:53:55;15.32;;;7.90;;
54557;SDS011;40452;50.080;20.040;2022-09-27T05:56:20;14.73;;;7.68;;
54557;SDS011;40452;50.080;20.040;2022-09-27T05:58:46;17.95;;;8.20;;
54557;SDS011;40452;50.080;20.040;2022-09-27T06:01:11;17.02;;;7.80;;
54557;SDS011;40452;50.080;20.040;2022-09-27T06:03:37;14.60;;;7.93;;
54557;SDS011;40452;50.080;20.040;2022-09-27T06:06:04;18.27;;;9.80;;
54557;SDS011;40452;50.080;20.040;2022-09-27T06:08:34;17.80;;;9.25;;
54557;SDS011;40452;50.080;20.040;2022-09-27T06:11:04;23.23;;;9.23;;
54557;SDS011;40452;50.080;20.040;2022-09-27T06:13:34;19.30;;;9.32;;
54557;SDS011;40452;50.080;20.040;2022-09-27T06:16:00;20.77;;;10.48;;
54557;SDS011;40452;50.080;20.040;2022-09-27T06:18:27;22.45;;;9.93;;
54557;SDS011;40452;50.080;20.040;2022-09-27T06:20:53;22.15;;;9.50;;
54557;SDS011;40452;50.080;20.040;2022-09-27T06:23:19;21.80;;;9.75;;
54557;SDS011;40452;50.080;20.040;2022-09-27T06:25:47;21.17;;;9.90;;
54557;SDS011;40452;50.080;20.040;2022-09-27T06:28:13;22.05;;;9.75;;
54557;SDS011;40452;50.080;20.040;2022-09-27T06:30:41;20.75;;;9.43;;
54557;SDS011;40452;50.080;20.040;2022-09-27T06:33:13;17.42;;;10.18;;
54557;SDS011;40452;50.080;20.040;2022-09-27T06:35:40;19.38;;;9.10;;
54557;SDS011;40452;50.080;20.040;2022-09-27T06:38:07;20.20;;;9.70;;
54557;SDS011;40452;50.080;20.040;2022-09-27T06:40:34;18.70;;;9.07;;
54557;SDS011;40452;50.080;20.040;2022-09-27T06:43:01;18.98;;;9.50;;
54557;SDS011;40452;50.080;20.040;2022-09-27T06:45:32;20.00;;;9.80;;
54557;SDS011;40452;50.080;20.040;2022-09-27T06:47:59;20.80;;;11.73;;
54557;SDS011;40452;50.080;20.040;2022-09-27T06:50:27;24.52;;;12.18;;
54557;SDS011;40452;50.080;20.040;2022-09-27T06:52:54;22.50;;;11.27;;
54557;SDS011;40452;50.080;20.040;2022-09-27T06:55:19;20.52;;;11.30;;
54557;SDS011;40452;50.080;20.040;2022-09-27T06:57:45;20.88;;;11.45;;
54557;SDS011;40452;50.080;20.040;2022-09-27T07:00:29;19.73;;;11.40;;
54557;SDS011;40452;50.080;20.040;2022-09-27T07:02:56;30.48;;;11.55;;
54557;SDS011;40452;50.080;20.040;2022-09-27T07:05:25;23.60;;;11.73;;
54557;SDS011;40452;50.080;20.040;2022-09-27T07:07:52;26.25;;;11.95;;
54557;SDS011;40452;50.080;20.040;2022-09-27T07:10:21;22.27;;;10.95;;
54557;SDS011;40452;50.080;20.040;2022-09-27T07:12:51;20.80;;;11.48;;
54557;SDS011;40452;50.080;20.040;2022-09-27T07:15:17;21.70;;;12.00;;
54557;SDS011;40452;50.080;20.040;2022-09-27T07:17:45;21.23;;;11.27;;
54557;SDS011;40452;50.080;20.040;2022-09-27T07:20:11;22.52;;;11.52;;
54557;SDS011;40452;50.080;20.040;2022-09-27T07:22:40;23.65;;;11.75;;
54557;SDS011;40452;50.080;20.040;2022-09-27T07:25:08;20.63;;;10.80;;
54557;SDS011;40452;50.080;20.040;2022-09-27T07:27:33;19.17;;;11.52;;
54557;SDS011;40452;50.080;20.040;2022-09-27T07:29:59;20.77;;;11.40;;
54557;SDS011;40452;50.080;20.040;2022-09-27T07:32:25;20.42;;;11.70;;
54557;SDS011;40452;50.080;20.040;2022-09-27T07:34:51;21.55;;;11.02;;
54557;SDS011;40452;50.080;20.040;2022-09-27T07:37:16;19.98;;;10.90;;
54557;SDS011;40452;50.080;20.040;2022-09-27T07:39:42;19.48;;;11.52;;
54557;SDS011;40452;50.080;20.040;2022-09-27T07:42:08;18.27;;;10.90;;
54557;SDS011;40452;50.080;20.040;2022-09-27T07:44:34;19.88;;;10.80;;
54557;SDS011;40452;50.080;20.040;2022-09-27T07:46:59;20.73;;;11.88;;
54557;SDS011;40452;50.080;20.040;2022-09-27T07:49:25;19.33;;;11.48;;
54557;SDS011;40452;50.080;20.040;2022-09-27T07:51:50;21.15;;;10.80;;
54557;SDS011;40452;50.080;20.040;2022-09-27T07:54:16;20.63;;;11.00;;
54557;SDS011;40452;50.080;20.040;2022-09-27T07:56:43;21.33;;;11.35;;
54557;SDS011;40452;50.080;20.040;2022-09-27T07:59:09;20.98;;;11.43;;
54557;SDS011;40452;50.080;20.040;2022-09-27T08:01:35;19.85;;;11.45;;
54557;SDS011;40452;50.080;20.040;2022-09-27T08:04:00;20.33;;;11.20;;
54557;SDS011;40452;50.080;20.040;2022-09-27T08:06:26;21.00;;;10.63;;
54557;SDS011;40452;50.080;20.040;2022-09-27T08:08:51;19.80;;;10.32;;
54557;SDS011;40452;50.080;20.040;2022-09-27T08:11:17;21.42;;;11.40;;
54557;SDS011;40452;50.080;20.040;2022-09-27T08:13:43;18.02;;;11.63;;
54557;SDS011;40452;50.080;20.040;2022-09-27T08:16:10;21.20;;;11.25;;
54557;SDS011;40452;50.080;20.040;2022-09-27T08:18:36;21.30;;;10.82;;
54557;SDS011;40452;50.080;20.040;2022-09-27T08:21:02;17.63;;;11.02;;
54557;SDS011;40452;50.080;20.040;2022-09-27T08:23:28;18.92;;;10.70;;
54557;SDS011;40452;50.080;20.040;2022-09-27T08:25:54;16.30;;;10.70;;
54557;SDS011;40452;50.080;20.040;2022-09-27T08:28:26;21.13;;;10.63;;
54557;SDS011;40452;50.080;20.040;2022-09-27T08:30:52;21.48;;;10.88;;
54557;SDS011;40452;50.080;20.040;2022-09-27T08:33:18;21.20;;;11.15;;
54557;SDS011;40452;50.080;20.040;2022-09-27T08:35:44;24.33;;;11.38;;
54557;SDS011;40452;50.080;20.040;2022-09-27T08:38:09;18.60;;;11.05;;
54557;SDS011;40452;50.080;20.040;2022-09-27T08:43:37;21.33;;;11.00;;
54557;SDS011;40452;50.080;20.040;2022-09-27T08:49:22;17.05;;;10.57;;
54557;SDS011;40452;50.080;20.040;2022-09-27T08:51:53;22.02;;;12.27;;
54557;SDS011;40452;50.080;20.040;2022-09-27T08:54:28;26.45;;;13.13;;
54557;SDS011;40452;50.080;20.040;2022-09-27T08:57:00;23.35;;;12.73;;
54557;SDS011;40452;50.080;20.040;2022-09-27T08:59:30;24.10;;;12.35;;
54557;SDS011;40452;50.080;20.040;2022-09-27T09:01:59;20.65;;;11.50;;
54557;SDS011;40452;50.080;20.040;2022-09-27T09:04:27;19.02;;;11.48;;
54557;SDS011;40452;50.080;20.040;2022-09-27T09:07:05;24.17;;;11.68;;
54557;SDS011;40452;50.080;20.040;2022-09-27T09:12:23;21.80;;;11.73;;
54557;SDS011;40452;50.080;20.040;2022-09-27T09:15:15;21.52;;;11.52;;
54557;SDS011;40452;50.080;20.040;2022-09-27T09:27:22;20.13;;;11.07;;
54557;SDS011;40452;50.080;20.040;2022-09-27T09:35:51;17.90;;;10.75;;
54557;SDS011;40452;50.080;20.040;2022-09-27T09:38:35;15.43;;;10.30;;
54557;SDS011;40452;50.080;20.040;2022-09-27T09:41:29;20.45;;;10.57;;
54557;SDS011;40452;50.080;20.040;2022-09-27T09:44:09;21.23;;;11.02;;
54557;SDS011;40452;50.080;20.040;2022-09-27T09:46:40;18.38;;;10.25;;
54557;SDS011;40452;50.080;20.040;2022-09-27T09:49:17;14.98;;;9.57;;
54557;SDS011;40452;50.080;20.040;2022-09-27T09:51:51;18.42;;;10.82;;
54557;SDS011;40452;50.080;20.040;2022-09-27T09:54:37;19.05;;;10.20;;
54557;SDS011;40452;50.080;20.040;2022-09-27T09:57:11;16.42;;;10.90;;
54557;SDS011;40452;50.080;20.040;2022-09-27T09:59:50;19.77;;;11.30;;
54557;SDS011;40452;50.080;20.040;2022-09-27T10:02:24;18.95;;;11.13;;
54557;SDS011;40452;50.080;20.040;2022-09-27T10:04:56;24.67;;;10.80;;
54557;SDS011;40452;50.080;20.040;2022-09-27T10:07:22;19.10;;;11.05;;
54557;SDS011;40452;50.080;20.040;2022-09-27T10:09:49;19.25;;;10.80;;
54557;SDS011;40452;50.080;20.040;2022-09-27T10:12:17;16.58;;;10.27;;
54557;SDS011;40452;50.080;20.040;2022-09-27T10:14:44;17.92;;;9.82;;
54557;SDS011;40452;50.080;20.040;2022-09-27T10:17:11;16.63;;;10.25;;
54557;SDS011;40452;50.080;20.040;2022-09-27T10:19:42;15.77;;;10.32;;
54557;SDS011;40452;50.080;20.040;2022-09-27T10:22:17;16.30;;;10.13;;
54557;SDS011;40452;50.080;20.040;2022-09-27T10:24:56;19.50;;;9.98;;
54557;SDS011;40452;50.080;20.040;2022-09-27T10:27:25;18.63;;;10.50;;
54557;SDS011;40452;50.080;20.040;2022-09-27T10:29:57;15.30;;;10.40;;
54557;SDS011;40452;50.080;20.040;2022-09-27T10:32:29;18.17;;;10.10;;
54557;SDS011;40452;50.080;20.040;2022-09-27T10:37:44;18.65;;;9.32;;
54557;SDS011;40452;50.080;20.040;2022-09-27T10:40:23;16.25;;;9.52;;
54557;SDS011;40452;50.080;20.040;2022-09-27T10:42:53;18.02;;;9.30;;
54557;SDS011;40452;50.080;20.040;2022-09-27T10:45:29;16.67;;;8.90;;
54557;SDS011;40452;50.080;20.040;2022-09-27T10:47:56;15.40;;;8.95;;
54557;SDS011;40452;50.080;20.040;2022-09-27T10:50:24;16.02;;;8.93;;
54557;SDS011;40452;50.080;20.040;2022-09-27T10:53:02;14.85;;;8.98;;
54557;SDS011;40452;50.080;20.040;2022-09-27T10:55:37;13.73;;;8.52;;
54557;SDS011;40452;50.080;20.040;2022-09-27T10:58:04;15.52;;;8.45;;
54557;SDS011;40452;50.080;20.040;2022-09-27T11:00:31;15.30;;;8.15;;
54557;SDS011;40452;50.080;20.040;2022-09-27T11:03:00;19.58;;;7.80;;
54557;SDS011;40452;50.080;20.040;2022-09-27T11:05:30;14.25;;;8.07;;
54557;SDS011;40452;50.080;20.040;2022-09-27T11:08:16;15.35;;;7.78;;
54557;SDS011;40452;50.080;20.040;2022-09-27T11:10:44;16.27;;;7.75;;
54557;SDS011;40452;50.080;20.040;2022-09-27T11:13:27;14.05;;;7.53;;
54557;SDS011;40452;50.080;20.040;2022-09-27T11:27:42;12.07;;;6.80;;
54557;SDS011;40452;50.080;20.040;2022-09-27T16:00:31;11.50;;;8.38;;
54557;SDS011;40452;50.080;20.040;2022-09-27T16:02:57;11.10;;;6.95;;
54557;SDS011;40452;50.080;20.040;2022-09-27T16:05:22;11.98;;;6.80;;
54557;SDS011;40452;50.080;20.040;2022-09-27T16:07:49;9.15;;;6.63;;
54557;SDS011;40452;50.080;20.040;2022-09-27T16:10:16;12.35;;;7.05;;
54557;SDS011;40452;50.080;20.040;2022-09-27T16:12:43;12.85;;;7.72;;
54557;SDS011;40452;50.080;20.040;2022-09-27T16:15:09;11.48;;;8.00;;
54557;SDS011;40452;50.080;20.040;2022-09-27T16:17:35;14.68;;;8.43;;
54557;SDS011;40452;50.080;20.040;2022-09-27T16:20:02;10.23;;;7.40;;
54557;SDS011;40452;50.080;20.040;2022-09-27T16:22:29;13.63;;;7.75;;
54557;SDS011;40452;50.080;20.040;2022-09-27T16:24:54;11.05;;;7.95;;
54557;SDS011;40452;50.080;20.040;2022-09-27T16:27:23;11.40;;;7.70;;
54557;SDS011;40452;50.080;20.040;2022-09-27T16:29:51;12.77;;;7.05;;
54557;SDS011;40452;50.080;20.040;2022-09-27T16:32:17;13.50;;;7.32;;
54557;SDS011;40452;50.080;20.040;2022-09-27T16:34:43;15.13;;;7.45;;
54557;SDS011;40452;50.080;20.040;2022-09-27T16:37:08;11.20;;;6.75;;
54557;SDS011;40452;50.080;20.040;2022-09-27T16:39:34;12.50;;;6.88;;
54557;SDS011;40452;50.080;20.040;2022-09-27T16:42:00;11.52;;;7.20;;
54557;SDS011;40452;50.080;20.040;2022-09-27T16:44:29;11.32;;;6.75;;
54557;SDS011;40452;50.080;20.040;2022-09-27T16:46:55;9.65;;;6.82;;
54557;SDS011;40452;50.080;20.040;2022-09-27T16:49:21;11.55;;;6.90;;
54557;SDS011;40452;50.080;20.040;2022-09-27T16:52:05;12.75;;;7.43;;
54557;SDS011;40452;50.080;20.040;2022-09-27T16:54:30;10.45;;;7.20;;
54557;SDS011;40452;50.080;20.040;2022-09-27T16:56:56;10.85;;;6.63;;
54557;SDS011;40452;50.080;20.040;2022-09-27T16:59:23;9.68;;;6.68;;
54557;SDS011;40452;50.080;20.040;2022-09-27T17:01:49;10.68;;;7.25;;
54557;SDS011;40452;50.080;20.040;2022-09-27T17:04:15;14.80;;;6.70;;
54557;SDS011;40452;50.080;20.040;2022-09-27T17:06:40;9.93;;;6.82;;
54557;SDS011;40452;50.080;20.040;2022-09-27T17:09:06;10.52;;;6.55;;
54557;SDS011;40452;50.080;20.040;2022-09-27T17:11:32;11.10;;;6.38;;
54557;SDS011;40452;50.080;20.040;2022-09-27T17:13:57;14.13;;;6.95;;
54557;SDS011;40452;50.080;20.040;2022-09-27T17:16:25;10.02;;;6.78;;
54557;SDS011;40452;50.080;20.040;2022-09-27T17:18:52;9.40;;;6.65;;
54557;SDS011;40452;50.080;20.040;2022-09-27T17:21:17;12.48;;;6.78;;
54557;SDS011;40452;50.080;20.040;2022-09-27T17:23:43;10.20;;;6.65;;
54557;SDS011;40452;50.080;20.040;2022-09-27T17:28:44;10.15;;;6.80;;
54557;SDS011;40452;50.080;20.040;2022-09-27T17:31:11;9.77;;;7.00;;
54557;SDS011;40452;50.080;20.040;2022-09-27T17:33:43;10.82;;;7.05;;
54557;SDS011;40452;50.080;20.040;2022-09-27T17:36:11;9.50;;;6.90;;
54557;SDS011;40452;50.080;20.040;2022-09-27T17:39:01;10.57;;;6.60;;
54557;SDS011;40452;50.080;20.040;2022-09-27T17:41:28;9.40;;;6.35;;
54557;SDS011;40452;50.080;20.040;2022-09-27T17:43:54;12.43;;;7.75;;
54557;SDS011;40452;50.080;20.040;2022-09-27T17:46:23;11.82;;;6.70;;
54557;SDS011;40452;50.080;20.040;2022-09-27T17:48:53;13.45;;;7.03;;
54557;SDS011;40452;50.080;20.040;2022-09-27T17:51:39;15.30;;;7.65;;
54557;SDS011;40452;50.080;20.040;2022-09-27T17:54:06;15.68;;;6.97;;
54557;SDS011;40452;50.080;20.040;2022-09-27T17:56:37;10.65;;;7.05;;
54557;SDS011;40452;50.080;20.040;2022-09-27T17:59:04;13.18;;;7.32;;
54557;SDS011;40452;50.080;20.040;2022-09-27T18:01:30;10.30;;;6.95;;
54557;SDS011;40452;50.080;20.040;2022-09-27T18:03:57;10.00;;;6.57;;
54557;SDS011;40452;50.080;20.040;2022-09-27T18:06:24;12.82;;;6.70;;
54557;SDS011;40452;50.080;20.040;2022-09-27T18:08:50;10.93;;;6.93;;
54557;SDS011;40452;50.080;20.040;2022-09-27T18:11:18;12.63;;;6.65;;
54557;SDS011;40452;50.080;20.040;2022-09-27T18:13:52;13.05;;;6.47;;
54557;SDS011;40452;50.080;20.040;2022-09-27T18:16:18;14.20;;;7.28;;
54557;SDS011;40452;50.080;20.040;2022-09-27T18:18:45;12.18;;;6.90;;
54557;SDS011;40452;50.080;20.040;2022-09-27T18:21:16;11.45;;;7.10;;
54557;SDS011;40452;50.080;20.040;2022-09-27T18:23:47;11.77;;;7.32;;
54557;SDS011;40452;50.080;20.040;2022-09-27T18:26:15;9.05;;;6.63;;
54557;SDS011;40452;50.080;20.040;2022-09-27T18:28:42;13.43;;;7.50;;
54557;SDS011;40452;50.080;20.040;2022-09-27T18:31:12;14.55;;;6.30;;
54557;SDS011;40452;50.080;20.040;2022-09-27T18:33:39;9.40;;;5.80;;
54557;SDS011;40452;50.080;20.040;2022-09-27T18:36:05;9.45;;;5.97;;
54557;SDS011;40452;50.080;20.040;2022-09-27T18:38:39;14.02;;;6.32;;
54557;SDS011;40452;50.080;20.040;2022-09-27T18:41:09;12.57;;;5.47;;
54557;SDS011;40452;50.080;20.040;2022-09-27T18:43:37;9.73;;;5.60;;
54557;SDS011;40452;50.080;20.040;2022-09-27T18:46:03;7.45;;;5.20;;
54557;SDS011;40452;50.080;20.040;2022-09-27T18:48:34;9.77;;;5.43;;
54557;SDS011;40452;50.080;20.040;2022-09-27T18:51:34;9.27;;;5.28;;
54557;SDS011;40452;50.080;20.040;2022-09-27T18:54:01;7.65;;;4.97;;
54557;SDS011;40452;50.080;20.040;2022-09-27T18:56:28;9.40;;;4.97;;
54557;SDS011;40452;50.080;20.040;2022-09-27T18:58:54;8.82;;;4.85;;
54557;SDS011;40452;50.080;20.040;2022-09-27T19:01:21;10.10;;;4.80;;
54557;SDS011;40452;50.080;20.040;2022-09-27T19:03:47;8.90;;;4.53;;
54557;SDS011;40452;50.080;20.040;2022-09-27T19:06:20;7.63;;;4.28;;
54557;SDS011;40452;50.080;20.040;2022-09-27T19:08:51;6.80;;;4.80;;
54557;SDS011;40452;50.080;20.040;2022-09-27T19:11:22;6.13;;;3.80;;
54557;SDS011;40452;50.080;20.040;2022-09-27T19:13:49;7.30;;;4.35;;
54557;SDS011;40452;50.080;20.040;2022-09-27T19:16:17;7.68;;;4.10;;
54557;SDS011;40452;50.080;20.040;2022-09-27T19:18:44;6.80;;;4.22;;
54557;SDS011;40452;50.080;20.040;2022-09-27T19:21:11;9.50;;;4.85;;
54557;SDS011;40452;50.080;20.040;2022-09-27T19:23:38;8.43;;;4.10;;
54557;SDS011;40452;50.080;20.040;2022-09-27T19:26:08;6.28;;;4.10;;
54557;SDS011;40452;50.080;20.040;2022-09-27T19:28:37;5.32;;;4.05;;
54557;SDS011;40452;50.080;20.040;2022-09-27T19:31:11;9.23;;;4.25;;
54557;SDS011;40452;50.080;20.040;2022-09-27T19:33:38;7.63;;;4.22;;
54557;SDS011;40452;50.080;20.040;2022-09-27T19:36:05;8.27;;;4.47;;
54557;SDS011;40452;50.080;20.040;2022-09-27T19:38:33;7.88;;;4.45;;
54557;SDS011;40452;50.080;20.040;2022-09-27T19:41:01;6.75;;;4.10;;
54557;SDS011;40452;50.080;20.040;2022-09-27T19:43:31;6.57;;;4.28;;
54557;SDS011;40452;50.080;20.040;2022-09-27T19:48:51;6.93;;;4.05;;
54557;SDS011;40452;50.080;20.040;2022-09-27T19:51:24;6.35;;;3.55;;
54557;SDS011;40452;50.080;20.040;2022-09-27T19:53:51;6.50;;;3.80;;
54557;SDS011;40452;50.080;20.040;2022-09-27T19:56:17;5.63;;;3.65;;
54557;SDS011;40452;50.080;20.040;2022-09-27T19:58:43;5.82;;;3.65;;
54557;SDS011;40452;50.080;20.040;2022-09-27T20:01:15;5.25;;;3.45;;
54557;SDS011;40452;50.080;20.040;2022-09-27T20:03:43;6.22;;;3.50;;
54557;SDS011;40452;50.080;20.040;2022-09-27T20:06:11;5.35;;;3.75;;
54557;SDS011;40452;50.080;20.040;2022-09-27T20:08:38;5.68;;;3.55;;
54557;SDS011;40452;50.080;20.040;2022-09-27T20:11:11;6.38;;;3.72;;
54557;SDS011;40452;50.080;20.040;2022-09-27T20:13:38;7.35;;;3.85;;
54557;SDS011;40452;50.080;20.040;2022-09-27T20:18:37;8.57;;;4.05;;
54557;SDS011;40452;50.080;20.040;2022-09-27T20:21:07;6.18;;;3.65;;
54557;SDS011;40452;50.080;20.040;2022-09-27T20:23:33;6.63;;;4.03;;
